sensor_id;sensor_type;location;lat;lon;timestamp;P1;durP1;ratioP1;P2;durP2;ratioP2
12567;SDS011;6349;50.904;6.136;2024-03-23T00:54:37;5.40;;;2.73;;
12567;SDS011;6349;50.904;6.136;2024-03-23T00:56:37;5.37;;;2.27;;
12567;SDS011;6349;50.904;6.136;2024-03-23T00:58:38;4.87;;;2.43;;
12567;SDS011;6349;50.904;6.136;2024-03-23T01:00:38;6.67;;;2.43;;
12567;SDS011;6349;50.904;6.136;2024-03-23T01:02:40;4.80;;;2.17;;
12567;SDS011;6349;50.904;6.136;2024-03-23T01:04:42;7.40;;;2.57;;
12567;SDS011;6349;50.904;6.136;2024-03-23T01:06:43;6.47;;;2.30;;
12567;SDS011;6349;50.904;6.136;2024-03-23T01:08:43;5.73;;;2.30;;
12567;SDS011;6349;50.904;6.136;2024-03-23T01:10:53;4.83;;;2.30;;
12567;SDS011;6349;50.904;6.136;2024-03-23T01:12:57;6.73;;;2.40;;
12567;SDS011;6349;50.904;6.136;2024-03-23T01:14:57;6.47;;;2.40;;
12567;SDS011;6349;50.904;6.136;2024-03-23T01:16:58;4.90;;;2.17;;
12567;SDS011;6349;50.904;6.136;2024-03-23T01:18:58;4.17;;;1.83;;
12567;SDS011;6349;50.904;6.136;2024-03-23T01:20:59;5.47;;;1.90;;
12567;SDS011;6349;50.904;6.136;2024-03-23T01:23:00;3.77;;;1.90;;
12567;SDS011;6349;50.904;6.136;2024-03-23T01:25:00;4.77;;;2.00;;
12567;SDS011;6349;50.904;6.136;2024-03-23T01:27:01;6.13;;;2.00;;
12567;SDS011;6349;50.904;6.136;2024-03-23T01:29:02;5.00;;;1.80;;
12567;SDS011;6349;50.904;6.136;2024-03-23T01:31:02;5.13;;;1.80;;
12567;SDS011;6349;50.904;6.136;2024-03-23T01:33:03;7.20;;;2.00;;
12567;SDS011;6349;50.904;6.136;2024-03-23T01:35:04;6.50;;;1.90;;
12567;SDS011;6349;50.904;6.136;2024-03-23T01:37:04;5.13;;;1.97;;
12567;SDS011;6349;50.904;6.136;2024-03-23T01:39:05;4.67;;;1.93;;
12567;SDS011;6349;50.904;6.136;2024-03-23T01:41:05;4.47;;;1.60;;
12567;SDS011;6349;50.904;6.136;2024-03-23T01:43:09;5.40;;;1.97;;
12567;SDS011;6349;50.904;6.136;2024-03-23T01:45:10;5.03;;;1.90;;
12567;SDS011;6349;50.904;6.136;2024-03-23T01:47:10;6.40;;;2.00;;
12567;SDS011;6349;50.904;6.136;2024-03-23T01:49:11;3.87;;;1.80;;
12567;SDS011;6349;50.904;6.136;2024-03-23T01:51:12;4.20;;;1.70;;
12567;SDS011;6349;50.904;6.136;2024-03-23T01:53:14;4.27;;;1.90;;
12567;SDS011;6349;50.904;6.136;2024-03-23T01:55:17;4.93;;;1.70;;
12567;SDS011;6349;50.904;6.136;2024-03-23T01:57:18;3.17;;;1.60;;
12567;SDS011;6349;50.904;6.136;2024-03-23T01:59:20;10.50;;;2.10;;
12567;SDS011;6349;50.904;6.136;2024-03-23T02:01:21;2.47;;;1.17;;
12567;SDS011;6349;50.904;6.136;2024-03-23T02:03:25;6.27;;;2.03;;
12567;SDS011;6349;50.904;6.136;2024-03-23T02:05:26;4.80;;;1.80;;
12567;SDS011;6349;50.904;6.136;2024-03-23T02:07:27;4.30;;;1.77;;
12567;SDS011;6349;50.904;6.136;2024-03-23T02:09:27;4.67;;;1.90;;
12567;SDS011;6349;50.904;6.136;2024-03-23T02:11:29;5.90;;;2.30;;
12567;SDS011;6349;50.904;6.136;2024-03-23T02:13:29;5.33;;;1.50;;
12567;SDS011;6349;50.904;6.136;2024-03-23T02:15:31;4.13;;;1.40;;
12567;SDS011;6349;50.904;6.136;2024-03-23T02:17:33;3.33;;;1.70;;
12567;SDS011;6349;50.904;6.136;2024-03-23T02:19:35;3.87;;;1.60;;
12567;SDS011;6349;50.904;6.136;2024-03-23T02:21:35;3.83;;;1.70;;
12567;SDS011;6349;50.904;6.136;2024-03-23T02:23:36;3.00;;;1.33;;
12567;SDS011;6349;50.904;6.136;2024-03-23T02:25:37;4.60;;;1.77;;
12567;SDS011;6349;50.904;6.136;2024-03-23T02:27:37;4.40;;;1.53;;
12567;SDS011;6349;50.904;6.136;2024-03-23T02:29:39;2.30;;;1.43;;
12567;SDS011;6349;50.904;6.136;2024-03-23T02:31:39;5.70;;;1.90;;
12567;SDS011;6349;50.904;6.136;2024-03-23T02:33:40;3.87;;;1.50;;
12567;SDS011;6349;50.904;6.136;2024-03-23T02:35:41;4.17;;;1.60;;
12567;SDS011;6349;50.904;6.136;2024-03-23T02:37:41;3.27;;;1.50;;
12567;SDS011;6349;50.904;6.136;2024-03-23T02:39:42;3.57;;;1.60;;
12567;SDS011;6349;50.904;6.136;2024-03-23T02:41:42;4.30;;;1.87;;
12567;SDS011;6349;50.904;6.136;2024-03-23T02:43:43;4.40;;;1.40;;
12567;SDS011;6349;50.904;6.136;2024-03-23T02:45:43;4.13;;;1.60;;
12567;SDS011;6349;50.904;6.136;2024-03-23T02:47:44;5.23;;;1.70;;
12567;SDS011;6349;50.904;6.136;2024-03-23T02:49:45;3.30;;;1.40;;
12567;SDS011;6349;50.904;6.136;2024-03-23T02:51:45;3.33;;;1.40;;
12567;SDS011;6349;50.904;6.136;2024-03-23T02:53:48;3.23;;;1.50;;
12567;SDS011;6349;50.904;6.136;2024-03-23T02:55:49;4.10;;;1.63;;
12567;SDS011;6349;50.904;6.136;2024-03-23T02:57:49;5.30;;;1.57;;
12567;SDS011;6349;50.904;6.136;2024-03-23T02:59:50;3.00;;;1.43;;
12567;SDS011;6349;50.904;6.136;2024-03-23T03:01:50;2.97;;;1.20;;
12567;SDS011;6349;50.904;6.136;2024-03-23T03:03:51;2.87;;;1.37;;
12567;SDS011;6349;50.904;6.136;2024-03-23T03:05:55;4.30;;;1.53;;
12567;SDS011;6349;50.904;6.136;2024-03-23T03:07:56;2.70;;;1.40;;
12567;SDS011;6349;50.904;6.136;2024-03-23T03:09:56;2.77;;;1.50;;
12567;SDS011;6349;50.904;6.136;2024-03-23T03:11:57;5.13;;;1.80;;
12567;SDS011;6349;50.904;6.136;2024-03-23T03:13:58;3.73;;;1.90;;
12567;SDS011;6349;50.904;6.136;2024-03-23T03:16:00;3.53;;;1.60;;
12567;SDS011;6349;50.904;6.136;2024-03-23T03:18:00;3.47;;;1.50;;
12567;SDS011;6349;50.904;6.136;2024-03-23T03:20:01;3.63;;;1.60;;
12567;SDS011;6349;50.904;6.136;2024-03-23T03:22:02;4.20;;;1.87;;
12567;SDS011;6349;50.904;6.136;2024-03-23T03:24:05;3.70;;;1.83;;
12567;SDS011;6349;50.904;6.136;2024-03-23T03:26:06;4.83;;;1.70;;
12567;SDS011;6349;50.904;6.136;2024-03-23T03:28:07;6.43;;;1.93;;
12567;SDS011;6349;50.904;6.136;2024-03-23T03:30:08;6.03;;;1.90;;
12567;SDS011;6349;50.904;6.136;2024-03-23T03:32:09;4.70;;;1.83;;
12567;SDS011;6349;50.904;6.136;2024-03-23T03:34:09;4.37;;;1.57;;
12567;SDS011;6349;50.904;6.136;2024-03-23T03:36:10;4.10;;;1.53;;
12567;SDS011;6349;50.904;6.136;2024-03-23T03:38:11;3.87;;;1.70;;
12567;SDS011;6349;50.904;6.136;2024-03-23T03:40:12;2.67;;;1.40;;
12567;SDS011;6349;50.904;6.136;2024-03-23T03:42:14;4.10;;;1.47;;
12567;SDS011;6349;50.904;6.136;2024-03-23T03:44:15;5.23;;;1.40;;
12567;SDS011;6349;50.904;6.136;2024-03-23T03:46:16;3.93;;;1.40;;
12567;SDS011;6349;50.904;6.136;2024-03-23T03:48:16;3.80;;;1.60;;
12567;SDS011;6349;50.904;6.136;2024-03-23T03:50:17;4.03;;;1.40;;
12567;SDS011;6349;50.904;6.136;2024-03-23T03:52:17;3.77;;;1.30;;
12567;SDS011;6349;50.904;6.136;2024-03-23T03:54:18;5.87;;;1.80;;
12567;SDS011;6349;50.904;6.136;2024-03-23T03:56:19;5.80;;;1.80;;
12567;SDS011;6349;50.904;6.136;2024-03-23T03:58:19;3.53;;;1.50;;
12567;SDS011;6349;50.904;6.136;2024-03-23T04:00:20;3.53;;;1.57;;
12567;SDS011;6349;50.904;6.136;2024-03-23T04:02:20;7.67;;;1.80;;
12567;SDS011;6349;50.904;6.136;2024-03-23T04:04:21;4.07;;;1.90;;
12567;SDS011;6349;50.904;6.136;2024-03-23T04:06:22;6.43;;;1.63;;
12567;SDS011;6349;50.904;6.136;2024-03-23T04:08:23;5.27;;;2.13;;
12567;SDS011;6349;50.904;6.136;2024-03-23T04:10:24;5.37;;;1.90;;
12567;SDS011;6349;50.904;6.136;2024-03-23T04:12:25;3.83;;;1.80;;
12567;SDS011;6349;50.904;6.136;2024-03-23T04:14:26;6.10;;;2.00;;
12567;SDS011;6349;50.904;6.136;2024-03-23T04:16:31;4.70;;;2.00;;
12567;SDS011;6349;50.904;6.136;2024-03-23T04:18:35;5.07;;;1.80;;
12567;SDS011;6349;50.904;6.136;2024-03-23T04:20:36;3.93;;;1.73;;
12567;SDS011;6349;50.904;6.136;2024-03-23T04:22:39;4.43;;;1.87;;
12567;SDS011;6349;50.904;6.136;2024-03-23T04:24:40;5.97;;;2.00;;
12567;SDS011;6349;50.904;6.136;2024-03-23T04:26:41;5.03;;;2.00;;
12567;SDS011;6349;50.904;6.136;2024-03-23T04:28:42;5.87;;;2.10;;
12567;SDS011;6349;50.904;6.136;2024-03-23T04:30:42;5.37;;;1.80;;
12567;SDS011;6349;50.904;6.136;2024-03-23T04:32:43;3.87;;;1.60;;
12567;SDS011;6349;50.904;6.136;2024-03-23T04:34:44;5.13;;;1.73;;
12567;SDS011;6349;50.904;6.136;2024-03-23T04:36:45;4.43;;;1.63;;
12567;SDS011;6349;50.904;6.136;2024-03-23T04:38:46;4.73;;;1.70;;
12567;SDS011;6349;50.904;6.136;2024-03-23T04:40:56;5.03;;;2.13;;
12567;SDS011;6349;50.904;6.136;2024-03-23T04:43:00;3.43;;;1.67;;
12567;SDS011;6349;50.904;6.136;2024-03-23T04:45:01;7.07;;;1.90;;
12567;SDS011;6349;50.904;6.136;2024-03-23T04:47:01;5.10;;;1.87;;
12567;SDS011;6349;50.904;6.136;2024-03-23T04:49:02;4.03;;;1.70;;
12567;SDS011;6349;50.904;6.136;2024-03-23T04:51:04;4.30;;;1.80;;
12567;SDS011;6349;50.904;6.136;2024-03-23T04:53:05;4.60;;;2.17;;
12567;SDS011;6349;50.904;6.136;2024-03-23T04:55:05;6.67;;;2.03;;
12567;SDS011;6349;50.904;6.136;2024-03-23T04:57:06;4.43;;;2.40;;
12567;SDS011;6349;50.904;6.136;2024-03-23T04:59:07;5.03;;;2.40;;
12567;SDS011;6349;50.904;6.136;2024-03-23T05:01:08;5.77;;;2.30;;
12567;SDS011;6349;50.904;6.136;2024-03-23T05:03:09;5.80;;;2.57;;
12567;SDS011;6349;50.904;6.136;2024-03-23T05:05:09;4.30;;;2.23;;
12567;SDS011;6349;50.904;6.136;2024-03-23T05:07:10;7.40;;;2.27;;
12567;SDS011;6349;50.904;6.136;2024-03-23T05:09:11;6.63;;;2.07;;
12567;SDS011;6349;50.904;6.136;2024-03-23T05:11:12;4.57;;;1.80;;
12567;SDS011;6349;50.904;6.136;2024-03-23T05:13:13;5.43;;;2.00;;
12567;SDS011;6349;50.904;6.136;2024-03-23T05:15:13;4.13;;;1.90;;
12567;SDS011;6349;50.904;6.136;2024-03-23T05:17:14;5.13;;;1.87;;
12567;SDS011;6349;50.904;6.136;2024-03-23T05:19:14;4.43;;;2.07;;
12567;SDS011;6349;50.904;6.136;2024-03-23T05:21:15;6.00;;;2.10;;
12567;SDS011;6349;50.904;6.136;2024-03-23T05:23:15;5.50;;;2.00;;
12567;SDS011;6349;50.904;6.136;2024-03-23T05:25:16;4.70;;;2.10;;
12567;SDS011;6349;50.904;6.136;2024-03-23T05:27:17;4.77;;;2.00;;
12567;SDS011;6349;50.904;6.136;2024-03-23T05:29:17;6.53;;;2.03;;
12567;SDS011;6349;50.904;6.136;2024-03-23T05:31:27;5.77;;;2.10;;
12567;SDS011;6349;50.904;6.136;2024-03-23T05:33:29;4.20;;;2.20;;
12567;SDS011;6349;50.904;6.136;2024-03-23T05:35:29;3.13;;;1.87;;
12567;SDS011;6349;50.904;6.136;2024-03-23T05:37:30;5.47;;;1.93;;
12567;SDS011;6349;50.904;6.136;2024-03-23T05:39:33;5.20;;;1.73;;
12567;SDS011;6349;50.904;6.136;2024-03-23T05:41:34;4.03;;;1.80;;
12567;SDS011;6349;50.904;6.136;2024-03-23T05:43:36;4.77;;;1.97;;
12567;SDS011;6349;50.904;6.136;2024-03-23T05:45:36;6.33;;;2.00;;
12567;SDS011;6349;50.904;6.136;2024-03-23T05:47:37;5.73;;;2.37;;
12567;SDS011;6349;50.904;6.136;2024-03-23T05:49:37;5.07;;;2.20;;
12567;SDS011;6349;50.904;6.136;2024-03-23T05:51:38;5.70;;;2.33;;
12567;SDS011;6349;50.904;6.136;2024-03-23T05:53:39;5.50;;;2.50;;
12567;SDS011;6349;50.904;6.136;2024-03-23T05:55:39;6.73;;;2.57;;
12567;SDS011;6349;50.904;6.136;2024-03-23T05:57:40;5.73;;;2.30;;
12567;SDS011;6349;50.904;6.136;2024-03-23T05:59:40;5.53;;;2.70;;
12567;SDS011;6349;50.904;6.136;2024-03-23T06:01:41;5.23;;;2.70;;
12567;SDS011;6349;50.904;6.136;2024-03-23T06:03:41;5.43;;;2.83;;
12567;SDS011;6349;50.904;6.136;2024-03-23T06:05:43;4.90;;;2.53;;
12567;SDS011;6349;50.904;6.136;2024-03-23T06:07:44;4.97;;;2.67;;
12567;SDS011;6349;50.904;6.136;2024-03-23T06:09:44;8.33;;;3.43;;
12567;SDS011;6349;50.904;6.136;2024-03-23T06:11:45;6.10;;;3.47;;
12567;SDS011;6349;50.904;6.136;2024-03-23T06:13:46;8.07;;;4.00;;
12567;SDS011;6349;50.904;6.136;2024-03-23T06:15:46;7.30;;;3.83;;
12567;SDS011;6349;50.904;6.136;2024-03-23T06:17:49;6.77;;;3.97;;
12567;SDS011;6349;50.904;6.136;2024-03-23T06:19:49;5.50;;;3.73;;
12567;SDS011;6349;50.904;6.136;2024-03-23T06:21:50;6.90;;;3.90;;
12567;SDS011;6349;50.904;6.136;2024-03-23T06:23:51;5.63;;;3.53;;
12567;SDS011;6349;50.904;6.136;2024-03-23T06:25:52;6.37;;;3.67;;
12567;SDS011;6349;50.904;6.136;2024-03-23T06:27:53;5.87;;;4.03;;
12567;SDS011;6349;50.904;6.136;2024-03-23T06:29:53;7.97;;;4.00;;
12567;SDS011;6349;50.904;6.136;2024-03-23T06:31:54;9.13;;;4.07;;
12567;SDS011;6349;50.904;6.136;2024-03-23T06:33:55;7.87;;;3.73;;
12567;SDS011;6349;50.904;6.136;2024-03-23T06:35:56;6.53;;;3.37;;
12567;SDS011;6349;50.904;6.136;2024-03-23T06:37:57;8.37;;;4.17;;
12567;SDS011;6349;50.904;6.136;2024-03-23T06:39:58;9.57;;;4.23;;
12567;SDS011;6349;50.904;6.136;2024-03-23T06:41:59;8.00;;;3.90;;
12567;SDS011;6349;50.904;6.136;2024-03-23T06:43:59;8.90;;;4.67;;
12567;SDS011;6349;50.904;6.136;2024-03-23T06:46:00;6.40;;;3.93;;
12567;SDS011;6349;50.904;6.136;2024-03-23T06:48:02;8.10;;;4.53;;
12567;SDS011;6349;50.904;6.136;2024-03-23T06:50:03;8.20;;;4.60;;
12567;SDS011;6349;50.904;6.136;2024-03-23T06:52:04;8.10;;;4.50;;
12567;SDS011;6349;50.904;6.136;2024-03-23T06:54:05;8.77;;;4.60;;
12567;SDS011;6349;50.904;6.136;2024-03-23T06:56:06;8.57;;;4.50;;
12567;SDS011;6349;50.904;6.136;2024-03-23T06:58:07;2.73;;;1.80;;
12567;SDS011;6349;50.904;6.136;2024-03-23T07:00:08;4.10;;;1.80;;
12567;SDS011;6349;50.904;6.136;2024-03-23T07:02:10;3.27;;;1.40;;
12567;SDS011;6349;50.904;6.136;2024-03-23T07:04:10;2.03;;;1.10;;
12567;SDS011;6349;50.904;6.136;2024-03-23T07:06:11;2.20;;;1.07;;
12567;SDS011;6349;50.904;6.136;2024-03-23T07:08:11;3.23;;;1.00;;
12567;SDS011;6349;50.904;6.136;2024-03-23T07:10:12;2.73;;;1.13;;
12567;SDS011;6349;50.904;6.136;2024-03-23T07:12:13;4.03;;;1.13;;
12567;SDS011;6349;50.904;6.136;2024-03-23T07:14:13;3.60;;;1.27;;
12567;SDS011;6349;50.904;6.136;2024-03-23T07:16:14;2.73;;;1.43;;
12567;SDS011;6349;50.904;6.136;2024-03-23T07:18:16;3.77;;;1.53;;
12567;SDS011;6349;50.904;6.136;2024-03-23T07:20:16;2.37;;;1.70;;
12567;SDS011;6349;50.904;6.136;2024-03-23T07:22:17;4.07;;;1.87;;
12567;SDS011;6349;50.904;6.136;2024-03-23T07:24:17;3.37;;;1.60;;
12567;SDS011;6349;50.904;6.136;2024-03-23T07:26:18;4.93;;;1.57;;
12567;SDS011;6349;50.904;6.136;2024-03-23T07:28:19;4.97;;;1.60;;
12567;SDS011;6349;50.904;6.136;2024-03-23T07:30:19;2.70;;;1.83;;
12567;SDS011;6349;50.904;6.136;2024-03-23T07:32:20;2.87;;;2.00;;
12567;SDS011;6349;50.904;6.136;2024-03-23T07:34:20;5.00;;;2.30;;
12567;SDS011;6349;50.904;6.136;2024-03-23T07:36:21;3.63;;;2.30;;
12567;SDS011;6349;50.904;6.136;2024-03-23T07:38:22;4.93;;;2.40;;
12567;SDS011;6349;50.904;6.136;2024-03-23T07:40:23;5.53;;;2.97;;
12567;SDS011;6349;50.904;6.136;2024-03-23T07:42:24;5.67;;;3.27;;
12567;SDS011;6349;50.904;6.136;2024-03-23T07:44:26;4.77;;;2.97;;
12567;SDS011;6349;50.904;6.136;2024-03-23T07:46:27;6.80;;;3.33;;
12567;SDS011;6349;50.904;6.136;2024-03-23T07:48:27;7.67;;;3.67;;
12567;SDS011;6349;50.904;6.136;2024-03-23T07:50:28;6.57;;;3.70;;
12567;SDS011;6349;50.904;6.136;2024-03-23T07:52:28;7.13;;;3.97;;
12567;SDS011;6349;50.904;6.136;2024-03-23T07:54:29;6.57;;;4.00;;
12567;SDS011;6349;50.904;6.136;2024-03-23T07:56:30;5.27;;;3.77;;
12567;SDS011;6349;50.904;6.136;2024-03-23T07:58:31;6.60;;;3.70;;
12567;SDS011;6349;50.904;6.136;2024-03-23T08:00:31;8.53;;;4.40;;
12567;SDS011;6349;50.904;6.136;2024-03-23T08:02:33;9.13;;;4.17;;
12567;SDS011;6349;50.904;6.136;2024-03-23T08:04:34;8.73;;;4.23;;
12567;SDS011;6349;50.904;6.136;2024-03-23T08:06:35;6.93;;;4.40;;
12567;SDS011;6349;50.904;6.136;2024-03-23T08:08:35;8.10;;;4.40;;
12567;SDS011;6349;50.904;6.136;2024-03-23T08:10:36;9.13;;;4.10;;
12567;SDS011;6349;50.904;6.136;2024-03-23T08:12:38;7.93;;;4.30;;
12567;SDS011;6349;50.904;6.136;2024-03-23T08:14:38;8.20;;;4.57;;
12567;SDS011;6349;50.904;6.136;2024-03-23T08:16:39;7.70;;;4.50;;
12567;SDS011;6349;50.904;6.136;2024-03-23T08:18:39;13.67;;;4.47;;
12567;SDS011;6349;50.904;6.136;2024-03-23T08:20:40;7.37;;;4.17;;
12567;SDS011;6349;50.904;6.136;2024-03-23T08:22:41;9.03;;;4.13;;
12567;SDS011;6349;50.904;6.136;2024-03-23T08:24:42;7.67;;;4.17;;
12567;SDS011;6349;50.904;6.136;2024-03-23T08:26:42;10.37;;;4.03;;
12567;SDS011;6349;50.904;6.136;2024-03-23T08:28:43;8.00;;;3.93;;
12567;SDS011;6349;50.904;6.136;2024-03-23T08:30:43;10.20;;;3.87;;
12567;SDS011;6349;50.904;6.136;2024-03-23T08:32:44;7.80;;;3.70;;
12567;SDS011;6349;50.904;6.136;2024-03-23T08:34:46;9.93;;;3.23;;
12567;SDS011;6349;50.904;6.136;2024-03-23T08:36:46;5.80;;;2.97;;
12567;SDS011;6349;50.904;6.136;2024-03-23T08:38:47;5.23;;;3.20;;
12567;SDS011;6349;50.904;6.136;2024-03-23T08:41:23;7.97;;;3.70;;
12567;SDS011;6349;50.904;6.136;2024-03-23T08:43:17;7.60;;;3.13;;
12567;SDS011;6349;50.904;6.136;2024-03-23T08:45:17;8.13;;;3.10;;
12567;SDS011;6349;50.904;6.136;2024-03-23T08:47:18;8.60;;;2.93;;
12567;SDS011;6349;50.904;6.136;2024-03-23T08:49:18;6.63;;;2.83;;
12567;SDS011;6349;50.904;6.136;2024-03-23T08:51:20;6.97;;;3.13;;
12567;SDS011;6349;50.904;6.136;2024-03-23T08:53:21;7.87;;;3.13;;
12567;SDS011;6349;50.904;6.136;2024-03-23T08:55:21;5.13;;;2.80;;
12567;SDS011;6349;50.904;6.136;2024-03-23T08:57:25;8.43;;;3.47;;
12567;SDS011;6349;50.904;6.136;2024-03-23T08:59:25;5.63;;;2.57;;
12567;SDS011;6349;50.904;6.136;2024-03-23T09:01:26;5.20;;;2.77;;
12567;SDS011;6349;50.904;6.136;2024-03-23T09:03:26;7.30;;;2.97;;
12567;SDS011;6349;50.904;6.136;2024-03-23T09:05:27;4.43;;;2.30;;
12567;SDS011;6349;50.904;6.136;2024-03-23T09:07:28;7.77;;;2.77;;
12567;SDS011;6349;50.904;6.136;2024-03-23T09:09:29;4.80;;;2.47;;
12567;SDS011;6349;50.904;6.136;2024-03-23T09:11:29;6.40;;;2.57;;
12567;SDS011;6349;50.904;6.136;2024-03-23T09:13:30;7.67;;;2.40;;
12567;SDS011;6349;50.904;6.136;2024-03-23T09:15:31;4.83;;;1.97;;
12567;SDS011;6349;50.904;6.136;2024-03-23T09:17:32;5.83;;;2.50;;
12567;SDS011;6349;50.904;6.136;2024-03-23T09:19:33;4.73;;;2.07;;
12567;SDS011;6349;50.904;6.136;2024-03-23T09:21:34;5.77;;;2.40;;
12567;SDS011;6349;50.904;6.136;2024-03-23T09:23:34;7.17;;;2.50;;
12567;SDS011;6349;50.904;6.136;2024-03-23T09:25:38;5.43;;;1.97;;
12567;SDS011;6349;50.904;6.136;2024-03-23T09:27:39;6.20;;;2.33;;
12567;SDS011;6349;50.904;6.136;2024-03-23T09:29:39;6.00;;;2.47;;
12567;SDS011;6349;50.904;6.136;2024-03-23T09:31:40;8.73;;;2.27;;
12567;SDS011;6349;50.904;6.136;2024-03-23T09:33:41;5.27;;;2.43;;
12567;SDS011;6349;50.904;6.136;2024-03-23T09:35:43;9.03;;;2.53;;
12567;SDS011;6349;50.904;6.136;2024-03-23T09:37:47;5.10;;;2.30;;
12567;SDS011;6349;50.904;6.136;2024-03-23T09:39:48;4.07;;;1.97;;
12567;SDS011;6349;50.904;6.136;2024-03-23T09:41:48;6.33;;;2.00;;
12567;SDS011;6349;50.904;6.136;2024-03-23T09:43:52;4.27;;;2.17;;
12567;SDS011;6349;50.904;6.136;2024-03-23T09:45:53;5.70;;;1.93;;
12567;SDS011;6349;50.904;6.136;2024-03-23T09:47:54;5.07;;;2.03;;
12567;SDS011;6349;50.904;6.136;2024-03-23T09:49:56;3.60;;;2.33;;
12567;SDS011;6349;50.904;6.136;2024-03-23T09:51:56;3.90;;;2.10;;
12567;SDS011;6349;50.904;6.136;2024-03-23T09:53:57;5.23;;;1.80;;
12567;SDS011;6349;50.904;6.136;2024-03-23T09:55:57;5.30;;;1.93;;
12567;SDS011;6349;50.904;6.136;2024-03-23T09:57:59;4.97;;;1.80;;
12567;SDS011;6349;50.904;6.136;2024-03-23T10:00:00;3.43;;;1.80;;
12567;SDS011;6349;50.904;6.136;2024-03-23T10:02:01;3.07;;;1.53;;
12567;SDS011;6349;50.904;6.136;2024-03-23T10:04:02;4.40;;;1.60;;
12567;SDS011;6349;50.904;6.136;2024-03-23T10:06:03;5.90;;;1.63;;
12567;SDS011;6349;50.904;6.136;2024-03-23T10:10:15;4.50;;;1.50;;
12567;SDS011;6349;50.904;6.136;2024-03-23T10:12:17;4.57;;;1.67;;
12567;SDS011;6349;50.904;6.136;2024-03-23T10:14:30;5.00;;;1.60;;
12567;SDS011;6349;50.904;6.136;2024-03-23T10:16:31;3.70;;;1.60;;
12567;SDS011;6349;50.904;6.136;2024-03-23T10:18:40;3.63;;;1.57;;
12567;SDS011;6349;50.904;6.136;2024-03-23T10:20:41;4.85;;;1.80;;
12567;SDS011;6349;50.904;6.136;2024-03-23T10:22:41;3.23;;;1.60;;
12567;SDS011;6349;50.904;6.136;2024-03-23T10:24:43;3.37;;;1.47;;
12567;SDS011;6349;50.904;6.136;2024-03-23T10:26:44;4.47;;;1.80;;
12567;SDS011;6349;50.904;6.136;2024-03-23T10:28:57;4.83;;;1.77;;
12567;SDS011;6349;50.904;6.136;2024-03-23T10:31:03;4.33;;;1.60;;
12567;SDS011;6349;50.904;6.136;2024-03-23T10:33:12;4.43;;;1.43;;
12567;SDS011;6349;50.904;6.136;2024-03-23T10:35:14;7.40;;;1.80;;
12567;SDS011;6349;50.904;6.136;2024-03-23T10:37:14;5.47;;;1.60;;
12567;SDS011;6349;50.904;6.136;2024-03-23T10:39:15;3.33;;;1.50;;
12567;SDS011;6349;50.904;6.136;2024-03-23T10:41:17;4.80;;;1.77;;
12567;SDS011;6349;50.904;6.136;2024-03-23T10:43:18;5.23;;;1.80;;
12567;SDS011;6349;50.904;6.136;2024-03-23T10:45:20;4.87;;;1.33;;
12567;SDS011;6349;50.904;6.136;2024-03-23T10:47:20;5.00;;;1.43;;
12567;SDS011;6349;50.904;6.136;2024-03-23T10:49:21;5.50;;;1.50;;
12567;SDS011;6349;50.904;6.136;2024-03-23T10:51:22;3.60;;;1.33;;
12567;SDS011;6349;50.904;6.136;2024-03-23T10:53:24;4.83;;;1.30;;
12567;SDS011;6349;50.904;6.136;2024-03-23T10:55:26;3.77;;;1.20;;
12567;SDS011;6349;50.904;6.136;2024-03-23T10:57:37;4.53;;;1.60;;
12567;SDS011;6349;50.904;6.136;2024-03-23T10:59:45;4.27;;;1.40;;
12567;SDS011;6349;50.904;6.136;2024-03-23T11:01:55;6.53;;;1.50;;
12567;SDS011;6349;50.904;6.136;2024-03-23T11:03:57;3.90;;;1.43;;
12567;SDS011;6349;50.904;6.136;2024-03-23T11:05:58;4.43;;;1.30;;
12567;SDS011;6349;50.904;6.136;2024-03-23T11:07:59;3.17;;;1.37;;
12567;SDS011;6349;50.904;6.136;2024-03-23T11:10:00;4.47;;;1.77;;
12567;SDS011;6349;50.904;6.136;2024-03-23T11:14:22;5.27;;;1.70;;
12567;SDS011;6349;50.904;6.136;2024-03-23T11:16:25;4.67;;;1.60;;
12567;SDS011;6349;50.904;6.136;2024-03-23T11:18:35;3.53;;;1.50;;
12567;SDS011;6349;50.904;6.136;2024-03-23T11:20:36;4.63;;;1.60;;
12567;SDS011;6349;50.904;6.136;2024-03-23T11:24:51;5.07;;;1.60;;
12567;SDS011;6349;50.904;6.136;2024-03-23T11:26:52;4.10;;;1.47;;
12567;SDS011;6349;50.904;6.136;2024-03-23T11:29:08;4.77;;;1.60;;
12567;SDS011;6349;50.904;6.136;2024-03-23T11:31:12;2.47;;;1.50;;
12567;SDS011;6349;50.904;6.136;2024-03-23T11:33:14;3.70;;;1.70;;
12567;SDS011;6349;50.904;6.136;2024-03-23T11:35:25;3.60;;;1.60;;
12567;SDS011;6349;50.904;6.136;2024-03-23T11:37:26;4.77;;;1.90;;
12567;SDS011;6349;50.904;6.136;2024-03-23T11:39:27;3.83;;;1.57;;
12567;SDS011;6349;50.904;6.136;2024-03-23T11:41:27;2.43;;;1.57;;
12567;SDS011;6349;50.904;6.136;2024-03-23T11:43:28;4.80;;;1.87;;
12567;SDS011;6349;50.904;6.136;2024-03-23T11:45:28;2.53;;;1.33;;
12567;SDS011;6349;50.904;6.136;2024-03-23T11:47:33;1.97;;;1.00;;
12567;SDS011;6349;50.904;6.136;2024-03-23T11:49:34;2.07;;;0.87;;
12567;SDS011;6349;50.904;6.136;2024-03-23T11:51:40;1.27;;;0.60;;
12567;SDS011;6349;50.904;6.136;2024-03-23T11:53:41;1.53;;;0.53;;
12567;SDS011;6349;50.904;6.136;2024-03-23T11:55:49;0.90;;;0.70;;
12567;SDS011;6349;50.904;6.136;2024-03-23T11:57:50;2.27;;;0.70;;
12567;SDS011;6349;50.904;6.136;2024-03-23T11:59:51;1.40;;;0.63;;
12567;SDS011;6349;50.904;6.136;2024-03-23T12:01:51;0.70;;;0.60;;
12567;SDS011;6349;50.904;6.136;2024-03-23T12:03:53;2.97;;;0.80;;
12567;SDS011;6349;50.904;6.136;2024-03-23T12:05:54;1.43;;;0.83;;
12567;SDS011;6349;50.904;6.136;2024-03-23T12:08:14;1.80;;;0.70;;
12567;SDS011;6349;50.904;6.136;2024-03-23T12:10:18;3.30;;;1.10;;
12567;SDS011;6349;50.904;6.136;2024-03-23T12:12:19;1.40;;;0.90;;
12567;SDS011;6349;50.904;6.136;2024-03-23T12:14:21;1.50;;;1.00;;
12567;SDS011;6349;50.904;6.136;2024-03-23T12:16:24;1.67;;;0.80;;
12567;SDS011;6349;50.904;6.136;2024-03-23T12:18:27;2.20;;;1.07;;
12567;SDS011;6349;50.904;6.136;2024-03-23T12:20:28;2.50;;;1.33;;
12567;SDS011;6349;50.904;6.136;2024-03-23T12:22:28;2.07;;;1.40;;
12567;SDS011;6349;50.904;6.136;2024-03-23T12:24:32;2.10;;;1.10;;
12567;SDS011;6349;50.904;6.136;2024-03-23T12:26:36;1.57;;;0.90;;
12567;SDS011;6349;50.904;6.136;2024-03-23T12:28:38;2.13;;;1.17;;
12567;SDS011;6349;50.904;6.136;2024-03-23T12:30:39;2.80;;;1.27;;
12567;SDS011;6349;50.904;6.136;2024-03-23T12:32:40;2.73;;;1.10;;
12567;SDS011;6349;50.904;6.136;2024-03-23T12:34:41;3.63;;;1.40;;
12567;SDS011;6349;50.904;6.136;2024-03-23T12:36:41;2.13;;;1.27;;
12567;SDS011;6349;50.904;6.136;2024-03-23T12:38:42;1.83;;;1.20;;
12567;SDS011;6349;50.904;6.136;2024-03-23T12:40:47;2.80;;;1.50;;
12567;SDS011;6349;50.904;6.136;2024-03-23T12:42:51;3.27;;;1.50;;
12567;SDS011;6349;50.904;6.136;2024-03-23T12:44:52;2.60;;;1.27;;
12567;SDS011;6349;50.904;6.136;2024-03-23T12:46:52;5.00;;;1.50;;
12567;SDS011;6349;50.904;6.136;2024-03-23T12:48:54;2.37;;;1.53;;
12567;SDS011;6349;50.904;6.136;2024-03-23T12:50:54;2.23;;;1.30;;
12567;SDS011;6349;50.904;6.136;2024-03-23T12:52:55;1.63;;;1.30;;
12567;SDS011;6349;50.904;6.136;2024-03-23T12:54:56;4.67;;;1.70;;
12567;SDS011;6349;50.904;6.136;2024-03-23T12:56:56;2.57;;;1.53;;
12567;SDS011;6349;50.904;6.136;2024-03-23T12:58:57;4.20;;;1.60;;
12567;SDS011;6349;50.904;6.136;2024-03-23T13:00:58;3.97;;;1.50;;
12567;SDS011;6349;50.904;6.136;2024-03-23T13:02:58;2.93;;;1.43;;
12567;SDS011;6349;50.904;6.136;2024-03-23T13:04:59;3.13;;;1.27;;
12567;SDS011;6349;50.904;6.136;2024-03-23T13:06:59;1.83;;;1.30;;
12567;SDS011;6349;50.904;6.136;2024-03-23T13:09:03;3.10;;;1.43;;
12567;SDS011;6349;50.904;6.136;2024-03-23T13:11:05;1.90;;;1.30;;
12567;SDS011;6349;50.904;6.136;2024-03-23T13:13:05;2.30;;;1.40;;
12567;SDS011;6349;50.904;6.136;2024-03-23T13:15:07;3.10;;;1.70;;
12567;SDS011;6349;50.904;6.136;2024-03-23T13:17:08;2.97;;;1.03;;
12567;SDS011;6349;50.904;6.136;2024-03-23T13:19:09;1.60;;;1.20;;
12567;SDS011;6349;50.904;6.136;2024-03-23T13:21:09;1.27;;;1.00;;
12567;SDS011;6349;50.904;6.136;2024-03-23T13:23:10;2.33;;;1.17;;